Airfield :
LOGIN :

Register | Disclaimer

   EN    FR    IT 

 










Legend :    VFR   Marginal VFR   IFR   Intensive IFR   Very Intensive IFR
Visi :
Ceiling :
>= 8 km
>= 3000ft
5 to 8 km
1000 to 3000 ft
1500m to 5 km
500 to 1000 ft
800 to 1500m
200 to 500 ft
< 800m
< 200 ft
Symbols :   Thunderstorms  Fog  Heavy snow  Heavy precipitations  Wind > 20 kt
SIGMETs :     Misc.  Thunderstorms  Icing  Turbulence  Mountain Waves  Volcanic Ashes







- Airport Elevation : 119 ft
- IATA code : WAT


EIWF - Waterford

CURRENT METAR :
  • 221400Z 17012KT 140V210 9999 FEW019 BKN048 07/03 Q1021

EXPIRED METARs :
  • 221330Z 16013KT 9999 FEW015 SCT022 BKN047 06/03 Q1021
  • 221300Z 16015KT 140V200 9999 FEW015 SCT022 BKN048 06/04 Q1021
  • 221230Z 17013KT 9999 FEW033 BKN048 07/03 Q1022
  • 221200Z 17009KT 140V230 9999 FEW018 SCT028 06/03 Q1022
  • 221130Z 17012KT 150V210 9999 SCT019 BKN026 06/04 Q1022

TAF TAF EIWF
Valid from the 22 at 12:00 until the 22 at 21:00 UTC


221100Z 2212/2221 17010KT 9999 FEW017 BKN022
TEMPO 2212/2216 BKN015
ATIS : +353 51 877 000
No reported NOTAMs for that airfield.



MET'MAP, your aeronautical weather chart ! - Copyright ORBIFLY December 2007 - Disclaimer

ORBIFLY MET'MAP TEAM :

Programming & Development : Alexandra Zaïnal
Concept & Development : Baudouin d'Aumeries
Co-Development & Prog : Marc-Olivier Méhu
Technical & hardware support : Manuel Goepfert

Contact : metmap@orbifly.com




SOURCES & CREDITS :

   NOAA